createdAt,value
2022-09-21T00:01:20.374Z,11.02
2022-09-21T00:03:48.340Z,10.88
2022-09-21T00:06:18.393Z,11.01
2022-09-21T00:08:46.818Z,10.89
2022-09-21T00:11:25.136Z,11.07
2022-09-21T00:13:55.536Z,11.06
2022-09-21T00:16:23.243Z,11.08
2022-09-21T00:18:50.421Z,11.04
2022-09-21T00:21:18.226Z,10.91
2022-09-21T00:23:45.976Z,10.90
2022-09-21T00:26:16.746Z,11.09
2022-09-21T00:28:44.853Z,10.95
2022-09-21T00:31:14.810Z,11.14
2022-09-21T00:33:43.922Z,10.97
2022-09-21T00:36:14.609Z,11.15
2022-09-21T00:38:41.726Z,11.07
2022-09-21T00:41:10.482Z,11.09
2022-09-21T00:43:41.153Z,11.15
2022-09-21T00:46:28.035Z,11.13
2022-09-21T00:48:55.271Z,11.13
2022-09-21T00:51:22.809Z,10.83
2022-09-21T00:53:54.906Z,11.06
2022-09-21T00:56:23.588Z,10.86
2022-09-21T00:58:54.952Z,11.12
2022-09-21T01:01:22.734Z,11.12
2022-09-21T01:03:51.848Z,11.12
2022-09-21T01:06:21.439Z,11.14
2022-09-21T01:08:53.167Z,11.14
2022-09-21T01:11:58.018Z,11.12
2022-09-21T01:14:33.855Z,11.12
2022-09-21T01:17:17.427Z,11.14
2022-09-21T01:20:02.723Z,11.15
2022-09-21T01:23:03.651Z,11.16
2022-09-21T01:25:59.019Z,11.11
2022-09-21T01:28:41.530Z,11.16
2022-09-21T01:31:17.928Z,11.08
2022-09-21T01:33:51.717Z,11.18
2022-09-21T01:36:25.107Z,11.20
2022-09-21T01:38:56.636Z,11.15
2022-09-21T01:41:26.929Z,11.14
2022-09-21T01:43:57.790Z,11.04
2022-09-21T01:46:29.414Z,11.12
2022-09-21T01:49:06.090Z,11.11
2022-09-21T01:51:35.514Z,10.57
2022-09-21T01:54:10.511Z,11.11
2022-09-21T01:56:47.068Z,11.06
2022-09-21T01:59:25.781Z,11.09
2022-09-21T02:01:57.779Z,11.13
2022-09-21T02:04:25.193Z,10.58
2022-09-21T02:06:53.592Z,10.82
2022-09-21T02:09:20.880Z,11.02
2022-09-21T02:11:48.060Z,11.02
2022-09-21T02:14:22.722Z,11.06
2022-09-21T02:17:19.500Z,11.11
2022-09-21T02:19:56.077Z,10.97
2022-09-21T02:22:36.397Z,11.13
2022-09-21T02:25:11.627Z,11.12
2022-09-21T02:27:56.568Z,11.12
2022-09-21T02:30:26.094Z,11.11
2022-09-21T02:33:24.092Z,11.08
2022-09-21T02:36:00.030Z,11.05
2022-09-21T02:38:52.561Z,11.05
2022-09-21T02:41:24.650Z,11.07
2022-09-21T02:43:57.817Z,11.06
2022-09-21T02:46:29.583Z,11.07
2022-09-21T02:49:03.163Z,11.04
2022-09-21T02:51:35.107Z,10.99
2022-09-21T02:54:07.132Z,11.02
2022-09-21T02:56:35.381Z,10.95
2022-09-21T02:59:04.984Z,10.49
2022-09-21T03:01:33.343Z,10.95
2022-09-21T03:04:00.708Z,10.80
2022-09-21T03:06:28.380Z,10.37
2022-09-21T03:08:55.514Z,10.31
2022-09-21T03:11:22.687Z,10.89
2022-09-21T03:13:50.013Z,10.84
2022-09-21T03:16:17.274Z,10.83
2022-09-21T03:18:44.539Z,10.73
2022-09-21T03:21:12.906Z,10.81
2022-09-21T03:23:41.326Z,10.77
2022-09-21T03:26:09.239Z,10.81
2022-09-21T03:28:36.406Z,10.81
2022-09-21T03:31:03.777Z,10.61
2022-09-21T03:33:30.900Z,10.54
2022-09-21T03:35:58.111Z,10.84
2022-09-21T03:38:27.079Z,10.83
2022-09-21T03:40:58.230Z,10.78
2022-09-21T03:43:26.008Z,10.77
2022-09-21T03:45:54.062Z,10.78
2022-09-21T03:48:22.471Z,10.63
2022-09-21T03:50:49.616Z,10.75
2022-09-21T03:53:17.391Z,10.74
2022-09-21T03:55:44.753Z,10.71
2022-09-21T03:58:11.921Z,10.68
2022-09-21T04:00:39.643Z,10.65
2022-09-21T04:03:07.149Z,10.61
2022-09-21T04:05:34.777Z,10.51
2022-09-21T04:08:02.479Z,10.71
2022-09-21T04:10:33.128Z,10.75
2022-09-21T04:13:04.511Z,10.73
2022-09-21T04:15:32.076Z,10.73
2022-09-21T04:17:59.589Z,10.72
2022-09-21T04:20:27.732Z,10.73
2022-09-21T04:22:54.856Z,10.59
2022-09-21T04:25:21.919Z,10.45
2022-09-21T04:27:49.246Z,10.55
2022-09-21T04:30:17.289Z,10.67
2022-09-21T04:32:44.647Z,10.74
2022-09-21T04:35:11.715Z,10.75
2022-09-21T04:37:38.891Z,10.73
2022-09-21T04:40:07.387Z,10.56
2022-09-21T04:42:34.557Z,10.77
2022-09-21T04:45:01.637Z,10.77
2022-09-21T04:47:31.420Z,10.75
2022-09-21T04:49:58.634Z,10.75
2022-09-21T04:52:25.963Z,10.79
2022-09-21T04:54:53.526Z,10.80
2022-09-21T04:57:21.050Z,10.47
2022-09-21T04:59:48.295Z,10.73
2022-09-21T05:02:15.434Z,10.81
2022-09-21T05:04:43.421Z,10.79
2022-09-21T05:07:12.648Z,10.78
2022-09-21T05:09:58.188Z,10.70
2022-09-21T05:12:25.394Z,10.86
2022-09-21T05:14:52.657Z,10.86
2022-09-21T05:17:23.185Z,10.73
2022-09-21T05:19:50.884Z,10.15
2022-09-21T05:22:18.486Z,10.93
2022-09-21T05:24:45.866Z,10.97
2022-09-21T05:27:13.411Z,10.96
2022-09-21T05:29:41.639Z,11.03
2022-09-21T05:32:28.977Z,11.02
2022-09-21T05:35:01.977Z,11.11
2022-09-21T05:37:38.737Z,11.14
2022-09-21T05:40:07.389Z,11.07
2022-09-21T05:42:35.040Z,11.20
2022-09-21T05:45:02.634Z,11.00
2022-09-21T05:47:42.892Z,11.23
2022-09-21T05:50:47.867Z,11.26
2022-09-21T05:53:15.072Z,11.29
2022-09-21T05:56:06.743Z,11.27
2022-09-21T05:59:06.136Z,11.30
2022-09-21T06:01:48.504Z,11.39
2022-09-21T06:04:16.134Z,11.32
2022-09-21T06:06:43.190Z,11.35
2022-09-21T06:09:10.461Z,11.45
2022-09-21T06:11:37.887Z,11.06
2022-09-21T06:14:05.059Z,11.45
2022-09-21T06:16:42.860Z,11.42
2022-09-21T06:19:13.662Z,11.27
2022-09-21T06:21:40.923Z,11.61
2022-09-21T06:24:08.279Z,11.59
2022-09-21T06:26:35.703Z,11.56
2022-09-21T06:29:02.796Z,11.61
2022-09-21T06:31:30.612Z,11.64
2022-09-21T06:33:58.024Z,11.64
2022-09-21T06:36:25.186Z,11.63
2022-09-21T06:38:52.342Z,11.20
2022-09-21T06:41:21.414Z,11.62
2022-09-21T06:43:48.842Z,11.43
2022-09-21T06:46:16.131Z,11.67
2022-09-21T06:48:43.292Z,11.70
2022-09-21T06:51:10.572Z,11.70
2022-09-21T06:53:37.665Z,11.36
2022-09-21T06:56:09.980Z,11.63
2022-09-21T06:58:38.191Z,11.74
2022-09-21T07:01:10.106Z,11.75
2022-09-21T07:03:38.371Z,11.76
2022-09-21T07:06:06.585Z,11.64
2022-09-21T07:11:23.976Z,11.84
2022-09-21T07:13:51.457Z,11.68
2022-09-21T07:16:19.988Z,11.85
2022-09-21T07:18:47.647Z,11.59
2022-09-21T07:21:15.189Z,11.74
2022-09-21T07:23:42.350Z,12.03
2022-09-21T07:26:15.296Z,12.06
2022-09-21T07:28:42.993Z,11.85
2022-09-21T07:31:15.785Z,12.22
2022-09-21T07:33:44.376Z,12.30
2022-09-21T07:36:13.272Z,12.37
2022-09-21T07:38:42.652Z,12.44
2022-09-21T07:41:14.402Z,12.49
2022-09-21T07:43:42.492Z,12.54
2022-09-21T07:46:12.248Z,12.60
2022-09-21T07:48:39.816Z,12.64
2022-09-21T07:51:09.726Z,12.71
2022-09-21T07:53:38.203Z,12.84
2022-09-21T07:56:08.561Z,12.96
2022-09-21T07:58:54.835Z,13.08
2022-09-21T08:01:22.040Z,13.02
2022-09-21T08:03:54.087Z,13.45
2022-09-21T08:06:22.449Z,13.67
2022-09-21T08:08:55.132Z,13.90
2022-09-21T08:11:26.147Z,14.19
2022-09-21T08:13:56.815Z,14.44
2022-09-21T08:16:24.280Z,14.56
2022-09-21T08:18:52.739Z,14.40
2022-09-21T08:21:20.913Z,14.82
2022-09-21T08:23:49.501Z,14.83
2022-09-21T08:26:19.608Z,14.73
2022-09-21T08:28:51.455Z,14.71
2022-09-21T08:31:21.264Z,14.72
2022-09-21T08:33:50.128Z,14.80
2022-09-21T08:36:18.649Z,14.76
2022-09-21T08:38:46.388Z,15.02
2022-09-21T08:41:25.124Z,14.94
2022-09-21T08:43:58.338Z,14.88
2022-09-21T08:46:31.136Z,14.65
2022-09-21T08:49:11.819Z,14.77
2022-09-21T08:51:48.296Z,14.75
2022-09-21T08:54:25.669Z,14.74
2022-09-21T08:57:05.061Z,14.77
2022-09-21T08:59:34.585Z,14.71
2022-09-21T09:02:40.731Z,14.68
2022-09-21T09:05:41.696Z,14.65
2022-09-21T09:08:19.601Z,14.67
2022-09-21T09:11:17.438Z,14.65
2022-09-21T09:14:03.501Z,14.57
2022-09-21T09:16:42.436Z,14.63
2022-09-21T09:19:29.070Z,15.03
2022-09-21T09:21:57.143Z,15.45
2022-09-21T09:24:41.822Z,15.57
2022-09-21T09:27:20.383Z,15.45
2022-09-21T09:29:57.318Z,15.49
2022-09-21T09:32:34.888Z,15.56
2022-09-21T09:35:14.116Z,15.61
2022-09-21T09:37:42.910Z,15.52
2022-09-21T09:40:13.868Z,15.43
2022-09-21T09:43:07.412Z,15.42
2022-09-21T09:45:54.584Z,15.58
2022-09-21T09:48:24.376Z,15.79
2022-09-21T09:50:51.409Z,16.01
2022-09-21T09:53:22.761Z,16.11
2022-09-21T09:55:52.446Z,16.33
2022-09-21T09:58:26.045Z,16.52
2022-09-21T10:00:55.600Z,16.62
2022-09-21T10:03:25.030Z,16.30
2022-09-21T10:05:56.484Z,16.29
2022-09-21T10:08:44.908Z,16.20
2022-09-21T10:11:14.280Z,16.08
2022-09-21T10:13:47.850Z,16.01
2022-09-21T10:16:22.361Z,16.04
2022-09-21T10:18:59.259Z,15.92
2022-09-21T10:21:34.740Z,15.61
2022-09-21T10:24:06.771Z,16.09
2022-09-21T10:26:54.914Z,16.15
2022-09-21T10:29:25.783Z,16.05
2022-09-21T10:32:19.227Z,15.87
2022-09-21T10:35:05.547Z,15.67
2022-09-21T10:37:41.498Z,15.58
2022-09-21T10:40:20.811Z,15.49
2022-09-21T10:42:56.407Z,15.47
2022-09-21T10:45:28.919Z,15.41
2022-09-21T10:48:09.136Z,15.91
2022-09-21T10:50:50.771Z,16.19
2022-09-21T10:53:31.132Z,16.38
2022-09-21T10:56:22.389Z,16.42
2022-09-21T10:59:11.131Z,16.20
2022-09-21T11:01:45.002Z,15.98
2022-09-21T11:04:18.501Z,15.65
2022-09-21T11:06:51.229Z,15.63
2022-09-21T11:09:28.976Z,15.81
2022-09-21T11:12:08.456Z,16.16
2022-09-21T11:15:11.166Z,16.38
2022-09-21T11:18:03.145Z,16.67
2022-09-21T11:20:42.251Z,16.58
2022-09-21T11:23:32.062Z,16.68
2022-09-21T11:26:37.714Z,16.77
2022-09-21T11:32:25.149Z,16.99
2022-09-21T11:35:12.812Z,17.01
2022-09-21T11:38:08.926Z,16.77
2022-09-21T11:40:38.854Z,16.57
2022-09-21T11:43:50.581Z,16.32
2022-09-21T11:46:23.476Z,16.12
2022-09-21T11:49:28.214Z,15.92
2022-09-21T11:52:11.884Z,15.37
2022-09-21T11:54:39.463Z,15.54
2022-09-21T11:57:19.577Z,15.38
2022-09-21T12:00:02.593Z,15.31
2022-09-21T12:02:59.780Z,15.24
2022-09-21T12:06:03.894Z,15.12
2022-09-21T12:08:42.710Z,15.00
2022-09-21T12:11:24.958Z,14.83
2022-09-21T12:14:22.471Z,14.57
2022-09-21T12:17:16.730Z,14.33
2022-09-21T12:20:18.032Z,14.12
2022-09-21T12:22:49.740Z,13.99
2022-09-21T12:25:45.159Z,13.81
2022-09-21T12:28:24.943Z,13.88
2022-09-21T12:31:01.934Z,13.58
2022-09-21T12:33:34.996Z,13.73
2022-09-21T12:36:24.530Z,13.93
2022-09-21T12:39:28.786Z,13.99
2022-09-21T12:42:34.251Z,13.99
2022-09-21T12:45:15.427Z,14.12
2022-09-21T12:47:58.527Z,14.24
2022-09-21T12:50:45.038Z,14.27
2022-09-21T12:53:20.531Z,14.32
2022-09-21T12:56:01.546Z,14.30
2022-09-21T12:58:44.416Z,14.14
2022-09-21T13:01:32.982Z,14.33
2022-09-21T13:04:12.758Z,14.37
2022-09-21T13:07:11.216Z,14.44
2022-09-21T13:09:42.597Z,14.54
2022-09-21T13:12:24.271Z,14.68
2022-09-21T13:15:04.533Z,14.50
2022-09-21T13:17:33.854Z,14.63
2022-09-21T13:20:18.599Z,14.90
2022-09-21T13:22:49.226Z,15.01
2022-09-21T13:25:24.986Z,15.04
2022-09-21T13:28:13.876Z,15.05
2022-09-21T13:30:50.036Z,14.99
2022-09-21T13:33:20.153Z,15.05
2022-09-21T13:36:01.297Z,15.03
2022-09-21T13:38:54.522Z,15.04
2022-09-21T13:44:18.522Z,15.11
2022-09-21T13:46:49.824Z,15.08
2022-09-21T13:49:20.098Z,15.06
2022-09-21T13:52:08.812Z,14.95
2022-09-21T13:54:35.801Z,15.03
2022-09-21T13:57:25.227Z,15.05
2022-09-21T14:00:14.128Z,15.05
2022-09-21T14:02:55.068Z,15.06
2022-09-21T14:05:38.400Z,15.01
2022-09-21T14:08:22.550Z,14.84
2022-09-21T14:11:03.877Z,15.06
2022-09-21T14:13:44.038Z,14.91
2022-09-21T14:16:29.669Z,15.03
2022-09-21T14:18:56.945Z,14.87
2022-09-21T14:21:24.318Z,14.84
2022-09-21T14:24:07.710Z,15.11
2022-09-21T14:26:47.901Z,15.09
2022-09-21T14:29:27.546Z,14.76
2022-09-21T14:32:01.752Z,15.03
2022-09-21T14:34:37.071Z,15.00
2022-09-21T14:37:29.299Z,15.02
2022-09-21T14:39:58.776Z,14.94
2022-09-21T14:42:29.316Z,15.02
2022-09-21T14:45:01.651Z,15.04
2022-09-21T14:47:47.838Z,15.08
2022-09-21T14:50:57.969Z,14.97
2022-09-21T14:54:12.720Z,15.04
2022-09-21T14:56:45.650Z,15.02
2022-09-21T14:59:43.511Z,14.98
2022-09-21T15:02:18.287Z,14.97
2022-09-21T15:05:13.198Z,14.95
2022-09-21T15:08:28.029Z,14.93
2022-09-21T15:11:19.978Z,14.90
2022-09-21T15:14:17.596Z,14.93
2022-09-21T15:16:47.489Z,14.93
2022-09-21T15:19:28.622Z,14.92
2022-09-21T15:22:15.656Z,14.90
2022-09-21T15:24:57.344Z,14.91
2022-09-21T15:27:27.936Z,14.90
2022-09-21T15:29:56.851Z,14.88
2022-09-21T15:32:37.328Z,14.89
2022-09-21T15:35:16.623Z,14.81
2022-09-21T15:37:45.880Z,14.76
2022-09-21T15:40:20.708Z,14.52
2022-09-21T15:43:04.865Z,14.58
2022-09-21T15:45:47.206Z,14.47
2022-09-21T15:48:14.610Z,14.48
2022-09-21T15:50:44.191Z,14.47
2022-09-21T15:53:22.276Z,14.48
2022-09-21T15:55:50.365Z,14.51
2022-09-21T15:58:27.411Z,14.52
2022-09-21T16:00:56.441Z,14.61
2022-09-21T16:03:26.327Z,14.65
2022-09-21T16:05:57.196Z,14.63
2022-09-21T16:08:29.135Z,14.30
2022-09-21T16:11:20.284Z,14.40
2022-09-21T16:14:06.840Z,14.31
2022-09-21T16:16:33.988Z,14.04
2022-09-21T16:19:01.177Z,14.18
2022-09-21T16:21:32.812Z,14.11
2022-09-21T16:24:22.566Z,14.04
2022-09-21T16:27:02.049Z,13.95
2022-09-21T16:29:42.421Z,13.86
2022-09-21T16:32:32.422Z,13.75
2022-09-21T16:35:27.467Z,13.68
2022-09-21T16:37:57.977Z,13.62
2022-09-21T16:40:29.353Z,13.50
2022-09-21T16:42:57.233Z,13.48
2022-09-21T16:45:31.944Z,13.48
2022-09-21T16:47:59.855Z,13.51
2022-09-21T16:50:27.312Z,13.34
2022-09-21T16:52:54.480Z,13.39
2022-09-21T16:55:25.556Z,13.40
2022-09-21T16:57:55.427Z,12.84
2022-09-21T17:00:22.597Z,13.04
2022-09-21T17:02:50.068Z,13.26
2022-09-21T17:05:20.874Z,13.24
2022-09-21T17:07:59.099Z,12.93
2022-09-21T17:10:32.225Z,13.20
2022-09-21T17:12:59.512Z,13.18
2022-09-21T17:15:28.826Z,12.98
2022-09-21T17:17:58.299Z,13.07
2022-09-21T17:20:35.356Z,12.97
2022-09-21T17:23:03.396Z,13.08
2022-09-21T17:25:32.988Z,13.05
2022-09-21T17:28:01.620Z,13.01
2022-09-21T17:30:29.462Z,12.99
2022-09-21T17:32:58.624Z,12.75
2022-09-21T17:35:31.970Z,12.95
2022-09-21T17:38:00.172Z,12.92
2022-09-21T17:40:28.107Z,12.91
2022-09-21T17:43:05.326Z,12.91
2022-09-21T17:45:50.602Z,12.87
2022-09-21T17:48:22.577Z,12.84
2022-09-21T17:50:50.800Z,12.82
2022-09-21T17:53:43.504Z,12.75
2022-09-21T17:56:41.200Z,12.71
2022-09-21T17:59:24.299Z,12.71
2022-09-21T18:01:52.463Z,12.69
2022-09-21T18:04:19.902Z,12.66
2022-09-21T18:06:47.245Z,12.63
2022-09-21T18:09:14.611Z,12.61
2022-09-21T18:12:02.398Z,12.47
2022-09-21T18:14:34.489Z,12.56
2022-09-21T18:17:35.109Z,12.56
2022-09-21T18:20:34.576Z,12.55
2022-09-21T18:23:23.777Z,12.55
2022-09-21T18:25:56.829Z,12.54
2022-09-21T18:28:40.639Z,12.51
2022-09-21T18:31:47.599Z,12.49
2022-09-21T18:34:35.670Z,12.40
2022-09-21T18:37:36.994Z,12.32
2022-09-21T18:40:48.926Z,12.26
2022-09-21T18:43:39.698Z,12.16
2022-09-21T18:46:19.129Z,12.14
2022-09-21T18:49:03.523Z,11.85
2022-09-21T18:51:42.281Z,12.10
2022-09-21T18:54:20.042Z,11.83
2022-09-21T18:56:47.630Z,11.94
2022-09-21T18:59:16.315Z,12.03
2022-09-21T19:01:45.057Z,12.04
2022-09-21T19:04:12.813Z,11.88
2022-09-21T19:07:00.116Z,12.00
2022-09-21T19:10:00.269Z,12.06
2022-09-21T19:13:00.511Z,11.89
2022-09-21T19:16:01.508Z,12.11
2022-09-21T19:18:52.688Z,12.11
2022-09-21T19:21:46.037Z,11.95
2022-09-21T19:24:41.678Z,11.88
2022-09-21T19:27:14.457Z,12.08
2022-09-21T19:30:06.348Z,12.08
2022-09-21T19:32:48.878Z,11.83
2022-09-21T19:35:22.136Z,12.06
2022-09-21T19:37:50.877Z,12.06
2022-09-21T19:40:20.819Z,12.05
2022-09-21T19:42:54.072Z,12.05
2022-09-21T19:45:42.420Z,12.05
2022-09-21T19:48:13.989Z,12.04
2022-09-21T19:50:59.499Z,12.04
2022-09-21T19:53:46.098Z,12.03
2022-09-21T19:56:35.987Z,11.94
2022-09-21T19:59:21.935Z,11.93
2022-09-21T20:01:56.900Z,11.92
2022-09-21T20:04:46.021Z,11.92
2022-09-21T20:07:25.241Z,11.91
2022-09-21T20:10:26.451Z,11.82
2022-09-21T20:13:12.681Z,11.82
2022-09-21T20:15:52.454Z,11.83
2022-09-21T20:18:32.431Z,11.79
2022-09-21T20:21:00.567Z,11.81
2022-09-21T20:23:28.086Z,11.38
2022-09-21T20:26:01.030Z,11.56
2022-09-21T20:28:28.385Z,11.45
2022-09-21T20:30:55.835Z,11.62
2022-09-21T20:33:24.351Z,11.75
2022-09-21T20:35:55.695Z,11.54
2022-09-21T20:38:23.385Z,11.54
2022-09-21T20:40:51.851Z,11.30
2022-09-21T20:43:19.756Z,11.40
2022-09-21T20:45:49.549Z,11.51
2022-09-21T20:48:17.462Z,11.47
2022-09-21T20:50:50.901Z,11.40
2022-09-21T20:53:19.638Z,11.29
2022-09-21T20:55:55.448Z,11.26
2022-09-21T20:58:22.953Z,10.86
2022-09-21T21:00:52.261Z,11.08
2022-09-21T21:03:22.349Z,11.00
2022-09-21T21:05:49.436Z,10.72
2022-09-21T21:08:17.040Z,10.88
2022-09-21T21:10:47.390Z,10.93
2022-09-21T21:13:14.340Z,10.85
2022-09-21T21:15:41.748Z,10.86
2022-09-21T21:18:11.890Z,10.73
2022-09-21T21:20:39.567Z,10.79
2022-09-21T21:23:08.332Z,10.70
2022-09-21T21:25:35.869Z,10.82
2022-09-21T21:28:03.466Z,10.80
2022-09-21T21:30:31.620Z,10.77
2022-09-21T21:32:58.969Z,10.68
2022-09-21T21:35:26.293Z,10.60
2022-09-21T21:37:53.588Z,10.67
2022-09-21T21:40:21.092Z,10.60
2022-09-21T21:42:48.412Z,10.37
2022-09-21T21:45:15.555Z,10.15
2022-09-21T21:47:42.616Z,10.30
2022-09-21T21:50:10.989Z,9.86
2022-09-21T21:52:38.442Z,10.18
2022-09-21T21:55:06.719Z,10.20
2022-09-21T21:57:33.772Z,10.21
2022-09-21T22:00:01.008Z,10.23
2022-09-21T22:02:29.682Z,10.17
2022-09-21T22:04:56.791Z,10.15
2022-09-21T22:07:24.051Z,9.79
2022-09-21T22:09:51.373Z,9.26
2022-09-21T22:12:18.485Z,10.07
2022-09-21T22:14:46.638Z,10.04
2022-09-21T22:17:14.863Z,9.88
2022-09-21T22:19:42.860Z,9.93
2022-09-21T22:22:10.088Z,9.23
2022-09-21T22:24:37.357Z,9.84
2022-09-21T22:27:04.547Z,9.77
2022-09-21T22:29:31.923Z,9.82
2022-09-21T22:31:59.026Z,9.77
2022-09-21T22:34:26.228Z,9.68
2022-09-21T22:36:54.016Z,9.70
2022-09-21T22:39:21.759Z,9.76
2022-09-21T22:41:48.696Z,9.67
2022-09-21T22:44:16.130Z,9.52
2022-09-21T22:46:43.170Z,9.76
2022-09-21T22:49:10.381Z,9.80
2022-09-21T22:51:38.371Z,9.50
2022-09-21T22:54:05.751Z,9.65
2022-09-21T22:56:34.289Z,9.67
2022-09-21T22:59:03.047Z,9.66
2022-09-21T23:01:31.767Z,9.63
2022-09-21T23:04:07.028Z,9.56
2022-09-21T23:06:36.805Z,9.54
2022-09-21T23:09:07.992Z,9.10
2022-09-21T23:11:42.961Z,9.54
2022-09-21T23:14:11.965Z,9.53
2022-09-21T23:16:39.218Z,9.15
2022-09-21T23:19:07.623Z,9.27
2022-09-21T23:21:35.027Z,9.50
2022-09-21T23:24:03.268Z,9.53
2022-09-21T23:26:32.353Z,9.54
2022-09-21T23:29:02.237Z,9.49
2022-09-21T23:31:31.792Z,9.44
2022-09-21T23:34:03.185Z,9.45
2022-09-21T23:36:31.536Z,9.13
2022-09-21T23:38:59.141Z,9.41
2022-09-21T23:41:28.714Z,9.36
2022-09-21T23:43:56.882Z,9.21
2022-09-21T23:46:29.167Z,9.16
2022-09-21T23:48:57.657Z,9.03
2022-09-21T23:51:25.779Z,9.00
2022-09-21T23:53:53.523Z,8.90
2022-09-21T23:56:22.688Z,8.88
2022-09-21T23:58:50.601Z,8.82
